Time;durP1;ratioP1;P1;durP2;ratioP2;P2;SDS_P1;SDS_P2;PMS_P1;PMS_P2;Temp;Humidity;BMP_temperature;BMP_pressure;BME280_temperature;BME280_humidity;BME280_pressure;Samples;Min_cycle;Max_cycle;Signal;HPM_P1;HPM_P2
2021/04/10 00:02:00;;;;;;;6.78;3.10;;;102.70;1561.60;;;;;;5097469;28;20036;-69
2021/04/10 00:04:26;;;;;;;7.35;3.55;;;102.50;1587.20;;;;;;5097934;28;20059;-69
2021/04/10 00:06:52;;;;;;;8.27;3.50;;;102.50;1561.60;;;;;;5097231;28;20030;-70
2021/04/10 00:09:18;;;;;;;6.65;3.15;;;102.60;1561.60;;;;;;5097490;28;20389;-70
2021/04/10 00:11:44;;;;;;;9.63;3.55;;;102.60;1561.60;;;;;;5097141;28;20020;-70
2021/04/10 00:14:12;;;;;;;4.47;2.88;;;102.60;1587.20;;;;;;5097158;28;20081;-70
2021/04/10 00:16:38;;;;;;;6.30;2.60;;;102.60;1587.20;;;;;;5096840;28;20346;-71
2021/04/10 00:19:04;;;;;;;9.50;3.88;;;102.60;1587.20;;;;;;5097080;28;20028;-70
2021/04/10 00:21:30;;;;;;;6.10;2.90;;;102.60;1561.60;;;;;;5096568;28;20030;-70
2021/04/10 00:23:56;;;;;;;8.38;2.72;;;102.60;1561.60;;;;;;5097136;28;20114;-70
2021/04/10 00:26:22;;;;;;;5.70;2.85;;;102.60;1561.60;;;;;;5097316;28;20108;-70
2021/04/10 00:28:49;;;;;;;6.43;3.05;;;102.70;1561.60;;;;;;5096987;28;20114;-70
2021/04/10 00:31:15;;;;;;;7.85;3.63;;;102.60;1587.20;;;;;;5097196;28;20028;-70
2021/04/10 00:33:42;;;;;;;8.75;3.40;;;102.60;1587.20;;;;;;5097148;28;20059;-69
2021/04/10 00:36:09;;;;;;;11.32;3.58;;;102.50;1587.20;;;;;;5096861;28;20130;-72
2021/04/10 00:38:36;;;;;;;5.53;2.83;;;102.40;1587.20;;;;;;5097468;28;20083;-70
2021/04/10 00:41:04;;;;;;;10.23;3.38;;;102.40;1587.20;;;;;;5096901;28;20101;-71
2021/04/10 00:43:30;;;;;;;8.38;3.15;;;102.50;1587.20;;;;;;5096558;28;20024;-70
2021/04/10 00:45:55;;;;;;;5.97;3.00;;;102.60;1561.60;;;;;;5097376;28;20035;-70
2021/04/10 00:48:21;;;;;;;8.70;4.10;;;102.70;1561.60;;;;;;5097044;28;20411;-70
2021/04/10 00:50:49;;;;;;;8.05;4.13;;;102.80;1587.20;;;;;;5097056;28;20411;-69
2021/04/10 00:53:17;;;;;;;10.52;5.07;;;102.80;1561.60;;;;;;5096980;28;20028;-71
2021/04/10 00:55:46;;;;;;;8.00;3.88;;;102.70;1561.60;;;;;;5079176;28;20035;-70
2021/04/10 00:58:11;;;;;;;;;;;102.60;1561.60;;;;;;5097114;28;20023;-70
2021/04/10 01:00:40;;;;;;;5.93;2.80;;;102.60;1587.20;;;;;;5096988;28;19904;-70
2021/04/10 01:03:06;;;;;;;7.93;3.17;;;102.40;1612.80;;;;;;5096739;28;20038;-70
2021/04/10 01:05:32;;;;;;;7.22;2.83;;;102.40;1612.80;;;;;;5097168;28;20024;-70
2021/04/10 01:07:59;;;;;;;6.82;2.83;;;102.40;1612.80;;;;;;5097201;28;20028;-70
2021/04/10 01:10:27;;;;;;;8.55;3.05;;;77.70;1638.40;;;;;;5096636;28;20312;-71
2021/04/10 01:13:17;;;;;;;5.63;2.97;;;77.70;1638.40;;;;;;5096901;28;20057;-70
2021/04/10 01:16:06;;;;;;;5.40;2.53;;;77.60;1638.40;;;;;;5097035;28;20123;-70
2021/04/10 01:18:47;;;;;;;6.82;2.83;;;77.50;1664.00;;;;;;5096841;28;20031;-70
2021/04/10 01:21:15;;;;;;;5.40;2.88;;;77.50;1664.00;;;;;;5096771;28;20441;-71
2021/04/10 01:23:53;;;;;;;6.03;2.92;;;77.50;1664.00;;;;;;5096481;28;20067;-69
2021/04/10 01:26:47;;;;;;;5.33;3.13;;;77.50;1664.00;;;;;;5096722;28;20157;-70
2021/04/10 01:29:16;;;;;;;7.03;2.90;;;77.50;1664.00;;;;;;5096844;28;20248;-70
2021/04/10 01:31:50;;;;;;;5.18;2.80;;;77.40;1664.00;;;;;;5096778;28;20024;-70
2021/04/10 01:34:29;;;;;;;9.88;2.97;;;77.40;1664.00;;;;;;5101086;28;20048;-70
2021/04/10 01:37:02;;;;;;;5.30;2.58;;;77.50;1664.00;;;;;;5100589;28;20024;-71
2021/04/10 01:39:30;;;;;;;4.68;2.65;;;77.50;1664.00;;;;;;5099646;28;20024;-71
2021/04/10 01:41:56;;;;;;;4.65;2.50;;;77.50;1664.00;;;;;;5100150;28;20024;-69
2021/04/10 01:44:23;;;;;;;5.38;2.58;;;77.50;1664.00;;;;;;5100445;28;20043;-70
2021/04/10 01:46:51;;;;;;;6.50;2.83;;;77.50;1664.00;;;;;;5100089;28;20028;-70
2021/04/10 01:49:17;;;;;;;7.47;3.05;;;77.50;1664.00;;;;;;5099649;28;20111;-70
2021/04/10 01:51:43;;;;;;;5.63;2.88;;;77.40;1689.60;;;;;;5099993;28;20395;-71
2021/04/10 01:54:09;;;;;;;4.38;2.42;;;77.30;1689.60;;;;;;5099586;28;20634;-70
2021/04/10 01:56:37;;;;;;;6.68;2.55;;;77.20;1689.60;;;;;;5100163;28;20020;-69
2021/04/10 01:59:03;;;;;;;3.83;2.10;;;77.20;1715.20;;;;;;5099576;28;20435;-68
2021/04/10 02:01:30;;;;;;;4.43;2.20;;;77.30;1715.20;;;;;;5099055;28;20024;-71
2021/04/10 02:03:57;;;;;;;4.47;2.40;;;77.20;1715.20;;;;;;5099782;28;20031;-69
2021/04/10 02:06:24;;;;;;;5.82;2.67;;;77.20;1715.20;;;;;;5098909;28;20400;-70
2021/04/10 02:08:53;;;;;;;8.52;2.40;;;77.20;1715.20;;;;;;5099119;28;20394;-71
2021/04/10 02:11:19;;;;;;;;;;;77.30;1715.20;;;;;;5100041;28;20077;-69
2021/04/10 02:13:45;;;;;;;6.55;2.60;;;77.20;1715.20;;;;;;5099047;28;19951;-69
2021/04/10 02:16:12;;;;;;;6.13;2.70;;;77.20;1715.20;;;;;;5099274;28;20020;-69
2021/04/10 02:18:38;;;;;;;4.97;3.00;;;77.20;1715.20;;;;;;5099760;28;20028;-70
2021/04/10 02:21:10;;;;;;;6.93;2.92;;;77.10;1740.80;;;;;;5099177;28;20020;-70
2021/04/10 02:23:41;;;;;;;4.68;2.50;;;77.10;1740.80;;;;;;5081693;28;20342;-70
2021/04/10 02:26:08;;;;;;;10.73;2.95;;;77.00;1740.80;;;;;;5099336;28;20024;-70
2021/04/10 02:28:34;;;;;;;4.85;2.63;;;77.00;1740.80;;;;;;5098290;28;20027;-70
2021/04/10 02:31:03;;;;;;;4.50;2.28;;;77.00;1740.80;;;;;;5098690;28;20076;-70
2021/04/10 02:33:36;;;;;;;6.53;2.30;;;77.10;1740.80;;;;;;5098272;28;20044;-71
2021/04/10 02:36:04;;;;;;;5.85;2.45;;;77.00;1740.80;;;;;;5095883;28;20080;-70
2021/04/10 02:38:34;;;;;;;4.07;2.03;;;77.00;1740.80;;;;;;5098735;28;20077;-70
2021/04/10 02:41:15;;;;;;;4.72;2.00;;;77.00;1740.80;;;;;;5098315;28;20020;-70
2021/04/10 02:43:48;;;;;;;4.30;2.45;;;77.00;1740.80;;;;;;5095607;28;20085;-70
2021/04/10 02:46:15;;;;;;;6.00;2.20;;;77.00;1740.80;;;;;;5098255;28;20028;-70
2021/04/10 02:49:03;;;;;;;4.38;2.47;;;77.00;1766.40;;;;;;5095171;28;20415;-69
2021/04/10 02:51:38;;;;;;;4.85;2.92;;;77.10;1740.80;;;;;;5096818;28;20074;-70
2021/04/10 02:54:06;;;;;;;4.15;2.25;;;77.20;1740.80;;;;;;5095780;28;20059;-70
2021/04/10 02:56:35;;;;;;;3.88;2.13;;;77.00;1740.80;;;;;;5098036;28;20043;-71
2021/04/10 02:59:03;;;;;;;4.40;2.63;;;76.90;1766.40;;;;;;5095298;28;20028;-70
2021/04/10 03:01:31;;;;;;;6.57;2.30;;;76.90;1740.80;;;;;;5098186;28;20012;-71
2021/04/10 03:03:58;;;;;;;4.65;2.10;;;76.90;1766.40;;;;;;5098139;28;20028;-70
2021/04/10 03:06:25;;;;;;;6.50;2.60;;;76.90;1766.40;;;;;;5097939;28;20027;-70
2021/04/10 03:08:52;;;;;;;4.65;2.40;;;76.90;1766.40;;;;;;5097777;28;20040;-71
2021/04/10 03:11:18;;;;;;;5.85;2.28;;;77.00;1766.40;;;;;;5097424;28;20377;-71
2021/04/10 03:13:44;;;;;;;4.72;2.25;;;76.90;1766.40;;;;;;5097911;28;20032;-70
2021/04/10 03:16:10;;;;;;;4.90;2.15;;;76.90;1766.40;;;;;;5096240;28;20024;-72
2021/04/10 03:18:37;;;;;;;4.20;2.10;;;76.90;1792.00;;;;;;5097358;28;20023;-72
2021/04/10 03:21:04;;;;;;;4.47;2.50;;;77.00;1792.00;;;;;;5097026;28;20028;-71
2021/04/10 03:23:30;;;;;;;4.32;2.30;;;76.90;1766.40;;;;;;5094449;28;20032;-72
2021/04/10 03:25:59;;;;;;;6.13;2.83;;;76.90;1766.40;;;;;;5096906;28;20503;-72
2021/04/10 03:28:31;;;;;;;6.07;2.50;;;76.90;1792.00;;;;;;5097802;28;20028;-71
2021/04/10 03:31:02;;;;;;;12.70;3.30;;;76.80;1792.00;;;;;;5097289;28;20339;-71
2021/04/10 03:33:31;;;;;;;4.30;2.50;;;76.80;1792.00;;;;;;5094330;28;20067;-71
2021/04/10 03:35:57;;;;;;;4.63;2.90;;;77.00;1792.00;;;;;;5095937;28;20031;-72
2021/04/10 03:38:25;;;;;;;8.98;3.25;;;77.00;1766.40;;;;;;5095383;28;20101;-71
2021/04/10 03:40:51;;;;;;;6.18;3.60;;;77.00;1766.40;;;;;;5095817;28;20031;-71
2021/04/10 03:43:17;;;;;;;6.97;3.35;;;77.10;1766.40;;;;;;5095808;28;20114;-72
2021/04/10 03:45:42;;;;;;;6.65;3.80;;;77.10;1766.40;;;;;;5095134;28;20114;-70
2021/04/10 03:48:11;;;;;;;7.40;4.32;;;77.20;1766.40;;;;;;5095519;28;20647;-71
2021/04/10 03:50:36;;;;;;;6.05;2.83;;;77.10;1766.40;;;;;;5095287;28;20032;-72
2021/04/10 03:53:02;;;;;;;5.38;2.85;;;77.10;1766.40;;;;;;5095375;28;20429;-71
2021/04/10 03:55:28;;;;;;;6.50;2.40;;;77.10;1766.40;;;;;;5095103;28;20032;-71
2021/04/10 03:57:54;;;;;;;5.07;2.70;;;77.10;1792.00;;;;;;5095042;28;20032;-72
2021/04/10 04:00:20;;;;;;;4.90;2.88;;;77.10;1766.40;;;;;;5095594;28;20032;-71
2021/04/10 04:02:46;;;;;;;6.35;2.72;;;77.00;1792.00;;;;;;5095583;28;20032;-70
2021/04/10 04:05:12;;;;;;;3.72;2.17;;;77.20;1766.40;;;;;;5095264;28;20585;-72
2021/04/10 04:07:38;;;;;;;6.45;2.65;;;77.20;1766.40;;;;;;5095322;28;20035;-71
2021/04/10 04:10:05;;;;;;;5.57;2.53;;;77.20;1766.40;;;;;;5095172;28;20359;-71
2021/04/10 04:12:31;;;;;;;6.85;2.92;;;77.10;1766.40;;;;;;5095338;28;20031;-70
2021/04/10 04:14:57;;;;;;;6.28;3.50;;;77.10;1792.00;;;;;;5095346;28;20043;-72
2021/04/10 04:17:22;;;;;;;7.05;3.85;;;77.10;1766.40;;;;;;5094853;28;20051;-71
2021/04/10 04:19:48;;;;;;;7.70;3.25;;;77.30;1766.40;;;;;;5094709;28;20028;-70
2021/04/10 04:22:14;;;;;;;9.02;2.88;;;77.20;1766.40;;;;;;5095101;28;20059;-72
2021/04/10 04:24:40;;;;;;;7.40;4.20;;;77.30;1792.00;;;;;;5095152;28;20028;-71
2021/04/10 04:27:06;;;;;;;8.05;4.60;;;77.10;1792.00;;;;;;5094714;28;20024;-72
2021/04/10 04:29:31;;;;;;;7.63;3.88;;;77.20;1792.00;;;;;;5094651;28;20051;-70
2021/04/10 04:31:57;;;;;;;9.02;5.53;;;77.20;1792.00;;;;;;5094169;28;20667;-71
2021/04/10 04:34:23;;;;;;;6.47;3.50;;;77.10;1792.00;;;;;;5094932;28;20062;-70
2021/04/10 04:36:49;;;;;;;8.52;3.28;;;77.10;1792.00;;;;;;5094572;28;20117;-71
2021/04/10 04:39:14;;;;;;;7.30;3.80;;;77.10;1792.00;;;;;;5094597;28;20102;-70
2021/04/10 04:41:40;;;;;;;4.93;2.92;;;77.20;1792.00;;;;;;5094888;28;20354;-71
2021/04/10 04:44:06;;;;;;;5.53;3.03;;;77.30;1766.40;;;;;;5094441;28;20063;-71
2021/04/10 04:46:32;;;;;;;6.45;3.40;;;77.30;1792.00;;;;;;5094483;28;20024;-72
2021/04/10 04:48:58;;;;;;;14.85;9.15;;;77.40;1766.40;;;;;;5095160;28;20039;-72
2021/04/10 04:51:24;;;;;;;11.40;7.00;;;77.50;1766.40;;;;;;5095093;28;20024;-71
2021/04/10 04:53:49;;;;;;;11.07;6.60;;;77.60;1766.40;;;;;;5094732;28;20040;-71
2021/04/10 04:56:15;;;;;;;7.28;4.40;;;77.60;1766.40;;;;;;5094249;28;20031;-71
2021/04/10 04:58:41;;;;;;;9.63;3.83;;;77.70;1766.40;;;;;;5076525;28;20338;-70
2021/04/10 05:01:07;;;;;;;5.90;3.63;;;77.70;1766.40;;;;;;5094405;28;20028;-71
2021/04/10 05:03:33;;;;;;;8.43;3.38;;;77.70;1766.40;;;;;;5094916;28;20070;-70
2021/04/10 05:05:59;;;;;;;6.47;3.65;;;102.40;1740.80;;;;;;5094855;28;20059;-73
2021/04/10 05:08:24;;;;;;;6.20;3.83;;;102.40;1740.80;;;;;;5096826;28;20081;-70
2021/04/10 05:10:50;;;;;;;5.93;3.47;;;102.50;1740.80;;;;;;5098991;28;20135;-70
2021/04/10 05:13:16;;;;;;;6.63;3.13;;;102.70;1715.20;;;;;;5098547;28;20036;-72
2021/04/10 05:15:42;;;;;;;7.15;3.25;;;102.90;1715.20;;;;;;5098472;28;20035;-71
2021/04/10 05:18:08;;;;;;;7.72;2.60;;;103.00;1689.60;;;;;;5098095;28;20072;-71
2021/04/10 05:20:34;;;;;;;10.98;4.85;;;103.10;1664.00;;;;;;5098129;28;20024;-73
2021/04/10 05:22:59;;;;;;;22.10;9.10;;;103.20;1664.00;;;;;;5098285;28;20087;-70
2021/04/10 05:25:25;;;;;;;16.20;6.35;;;103.30;1689.60;;;;;;5098218;28;20024;-72
2021/04/10 05:27:52;;;;;;;18.17;7.18;;;103.30;1740.80;;;;;;5097561;28;20024;-70
2021/04/10 05:30:19;;;;;;;8.50;4.50;;;128.20;1792.00;;;;;;5097561;28;20055;-70
2021/04/10 05:32:45;;;;;;;19.77;9.57;;;128.00;1817.60;;;;;;5097956;28;20064;-71
2021/04/10 05:35:12;;;;;;;16.00;9.68;;;128.00;1843.20;;;;;;5098227;28;20422;-71
2021/04/10 05:37:38;;;;;;;17.67;12.40;;;128.20;1843.20;;;;;;5097614;28;20024;-71
2021/04/10 05:40:05;;;;;;;9.63;4.57;;;128.20;1843.20;;;;;;5098012;28;20020;-71
2021/04/10 05:42:32;;;;;;;11.57;4.90;;;128.20;1843.20;;;;;;5097859;28;20043;-72
2021/04/10 05:44:58;;;;;;;21.67;6.55;;;128.10;1868.80;;;;;;5097832;28;20027;-71
2021/04/10 05:47:24;;;;;;;13.35;5.75;;;128.40;1817.60;;;;;;5097871;28;20099;-70
2021/04/10 05:49:51;;;;;;;16.58;7.47;;;128.50;1792.00;;;;;;5097283;28;20114;-71
2021/04/10 05:52:16;;;;;;;12.32;5.95;;;128.40;1817.60;;;;;;5097416;28;20028;-71
2021/04/10 05:54:42;;;;;;;14.55;5.85;;;128.60;1792.00;;;;;;5097932;28;20024;-71
2021/04/10 05:57:08;;;;;;;12.50;6.00;;;128.60;1792.00;;;;;;5097082;28;20097;-71
2021/04/10 05:59:34;;;;;;;15.35;6.30;;;128.60;1689.60;;;;;;5097746;28;20027;-72
2021/04/10 06:02:05;;;;;;;17.67;7.45;;;128.70;1664.00;;;;;;5097697;28;20082;-72
2021/04/10 06:04:33;;;;;;;14.50;7.18;;;128.80;1612.80;;;;;;5096778;28;20028;-71
2021/04/10 06:06:58;;;;;;;17.15;8.35;;;153.60;1587.20;;;;;;5097746;28;20028;-71
2021/04/10 06:09:24;;;;;;;14.98;6.85;;;153.60;1561.60;;;;;;5096920;28;20028;-71
2021/04/10 06:11:50;;;;;;;15.30;7.32;;;153.60;1561.60;;;;;;5096306;28;20074;-72
2021/04/10 06:14:16;;;;;;;15.20;6.68;;;153.70;1587.20;;;;;;5096257;28;20114;-70
2021/04/10 06:16:42;;;;;;;12.95;7.18;;;153.80;1561.60;;;;;;5096160;28;20027;-70
2021/04/10 06:19:08;;;;;;;12.95;6.05;;;154.00;1561.60;;;;;;5096104;28;20054;-71
2021/04/10 06:21:34;;;;;;;19.10;7.20;;;154.10;1561.60;;;;;;5096982;28;20023;-70
2021/04/10 06:24:03;;;;;;;12.13;7.07;;;154.00;1561.60;;;;;;5096202;28;20043;-71
2021/04/10 06:26:28;;;;;;;13.60;6.85;;;153.90;1561.60;;;;;;5096204;28;20031;-70
2021/04/10 06:28:54;;;;;;;17.27;6.75;;;154.00;1561.60;;;;;;5097172;28;20024;-70
2021/04/10 06:31:20;;;;;;;14.57;6.28;;;154.00;1561.60;;;;;;5096763;28;20076;-71
2021/04/10 06:33:46;;;;;;;12.18;6.43;;;154.00;1536.00;;;;;;5096030;28;20059;-70
2021/04/10 06:36:11;;;;;;;19.92;6.00;;;154.00;1484.80;;;;;;5096912;28;20414;-70
2021/04/10 06:38:37;;;;;;;17.70;7.07;;;154.30;1536.00;;;;;;5096872;28;20082;-71
2021/04/10 06:41:04;;;;;;;14.30;7.43;;;154.40;1536.00;;;;;;5096642;28;20027;-72
2021/04/10 06:43:30;;;;;;;14.88;9.00;;;154.50;1484.80;;;;;;5096927;28;20039;-71
2021/04/10 06:45:58;;;;;;;13.73;6.18;;;154.50;1484.80;;;;;;5096476;28;20024;-70
2021/04/10 06:48:27;;;;;;;9.73;6.10;;;179.20;1459.20;;;;;;5096414;28;20035;-70
2021/04/10 06:50:52;;;;;;;8.97;5.30;;;179.30;1510.40;;;;;;5096446;28;20327;-70
2021/04/10 06:53:20;;;;;;;10.30;5.07;;;179.30;1484.80;;;;;;5096117;28;20031;-70
2021/04/10 06:55:52;;;;;;;10.75;5.63;;;179.40;1459.20;;;;;;5096545;28;20051;-71
2021/04/10 06:58:23;;;;;;;14.23;6.38;;;179.50;1459.20;;;;;;5096404;28;20031;-71
2021/04/10 07:00:53;;;;;;;10.23;6.30;;;179.50;1510.40;;;;;;5095165;28;20052;-71
2021/04/10 07:03:20;;;;;;;15.10;6.13;;;179.70;1459.20;;;;;;5095736;28;20044;-72
2021/04/10 07:05:46;;;;;;;9.80;5.55;;;179.70;1459.20;;;;;;5094978;28;20026;-70
2021/04/10 07:08:13;;;;;;;12.05;5.60;;;179.80;1459.20;;;;;;5094609;28;20032;-71
2021/04/10 07:10:39;;;;;;;10.48;5.68;;;179.90;1433.60;;;;;;5096360;28;20072;-71
2021/04/10 07:13:04;;;;;;;12.60;5.35;;;180.00;1433.60;;;;;;5096032;28;20604;-71
2021/04/10 07:15:31;;;;;;;10.02;5.35;;;180.10;1459.20;;;;;;5094488;28;20024;-72
2021/04/10 07:17:57;;;;;;;8.88;5.60;;;204.80;1433.60;;;;;;5091989;28;20034;-71
2021/04/10 07:20:28;;;;;;;9.25;5.15;;;205.00;1408.00;;;;;;5094207;28;20327;-71
2021/04/10 07:23:05;;;;;;;9.95;4.30;;;205.10;1408.00;;;;;;5094601;28;20048;-71
2021/04/10 07:25:33;;;;;;;8.88;4.63;;;205.20;1382.40;;;;;;5094337;28;20435;-70
2021/04/10 07:28:35;;;;;;;16.00;5.45;;;205.50;1356.80;;;;;;5094165;28;20115;-71
2021/04/10 07:31:08;;;;;;;12.05;4.70;;;205.60;1382.40;;;;;;5010932;28;20507;-70
2021/04/10 07:33:44;;;;;;;16.85;5.53;;;205.70;1382.40;;;;;;5011301;28;20116;-71
2021/04/10 07:36:13;;;;;;;11.90;5.15;;;205.70;1356.80;;;;;;5012434;28;20034;-70
2021/04/10 07:38:41;;;;;;;13.32;6.07;;;230.40;1408.00;;;;;;5013124;28;20060;-70
2021/04/10 07:41:12;;;;;;;13.97;6.17;;;230.50;1382.40;;;;;;5013298;28;20045;-70
2021/04/10 07:43:40;;;;;;;13.48;5.88;;;230.60;1356.80;;;;;;5013208;28;20128;-70
2021/04/10 07:46:15;;;;;;;11.05;4.95;;;230.70;1408.00;;;;;;5013526;28;20223;-70
2021/04/10 07:49:17;;;;;;;10.68;5.72;;;230.80;1356.80;;;;;;5012997;28;20041;-70
2021/04/10 07:51:57;;;;;;;14.65;4.50;;;230.90;1382.40;;;;;;5012236;28;20060;-70
2021/04/10 07:54:32;;;;;;;10.10;4.75;;;231.30;1408.00;;;;;;5013085;28;20143;-71
2021/04/10 07:57:01;;;;;;;14.27;5.38;;;231.30;1356.80;;;;;;5011803;28;20424;-70
2021/04/10 07:59:29;;;;;;;15.02;6.15;;;256.20;1408.00;;;;;;5012250;28;20037;-71
2021/04/10 08:02:08;;;;;;;9.85;4.40;;;256.30;1356.80;;;;;;5012465;28;20455;-70
2021/04/10 08:04:34;;;;;;;19.83;10.10;;;256.30;1356.80;;;;;;5019043;28;20116;-70
2021/04/10 08:07:00;;;;;;;9.48;4.43;;;256.60;1382.40;;;;;;5035284;28;20367;-71
2021/04/10 08:09:39;;;;;;;8.70;4.65;;;256.50;1305.60;;;;;;5035269;28;20029;-72
2021/04/10 08:12:08;;;;;;;;;;;256.80;1331.20;;;;;;5043510;28;20040;-71
2021/04/10 08:14:46;;;;;;;9.15;4.00;;;256.90;1305.60;;;;;;5051382;28;19912;-71
2021/04/10 08:17:33;;;;;;;10.53;4.10;;;256.90;1305.60;;;;;;5054174;28;20118;-71
2021/04/10 08:20:24;;;;;;;9.93;4.20;;;281.70;1305.60;;;;;;5052352;28;20040;-71
2021/04/10 08:22:51;;;;;;;10.43;4.28;;;281.70;1280.00;;;;;;5053876;28;20032;-71
2021/04/10 08:25:33;;;;;;;6.30;4.07;;;281.90;1305.60;;;;;;5054089;28;20040;-72
2021/04/10 08:27:59;;;;;;;8.15;3.83;;;282.10;1280.00;;;;;;5052121;28;20025;-71
2021/04/10 08:30:26;;;;;;;11.90;5.90;;;282.20;1280.00;;;;;;5054228;28;20024;-72
2021/04/10 08:32:53;;;;;;;6.20;3.00;;;282.30;1254.40;;;;;;5069476;28;20336;-69
2021/04/10 08:35:19;;;;;;;10.80;3.65;;;282.50;1254.40;;;;;;5077009;28;20522;-70
2021/04/10 08:37:59;;;;;;;11.10;4.75;;;307.20;1254.40;;;;;;5093957;28;20098;-71
2021/04/10 08:40:26;;;;;;;10.18;4.53;;;307.20;1254.40;;;;;;5094318;28;20032;-71
2021/04/10 08:42:55;;;;;;;7.50;4.10;;;307.20;1228.80;;;;;;5098450;28;20081;-71
2021/04/10 08:45:24;;;;;;;7.95;4.00;;;307.30;1203.20;;;;;;5098200;28;20042;-70
2021/04/10 08:47:50;;;;;;;9.82;3.55;;;307.40;1203.20;;;;;;5098769;28;20028;-70
2021/04/10 08:50:17;;;;;;;11.10;4.10;;;307.60;1228.80;;;;;;5097889;28;20328;-70
2021/04/10 08:52:43;;;;;;;6.97;3.17;;;307.60;1203.20;;;;;;5097787;28;20130;-70
2021/04/10 08:55:12;;;;;;;8.52;3.28;;;307.60;1203.20;;;;;;5097310;28;20085;-70
2021/04/10 08:57:43;;;;;;;8.73;4.28;;;307.60;1177.60;;;;;;5098142;28;20020;-70
2021/04/10 09:00:20;;;;;;;8.32;3.13;;;307.70;1203.20;;;;;;5098949;28;20030;-70
2021/04/10 09:03:00;;;;;;;7.20;3.20;;;307.80;1177.60;;;;;;5098402;28;20028;-70
2021/04/10 09:05:54;;;;;;;7.50;3.53;;;307.80;1177.60;;;;;;5098188;28;20031;-70
2021/04/10 09:08:28;;;;;;;7.03;3.08;;;308.10;1228.80;;;;;;5087503;28;20054;-70
2021/04/10 09:10:59;;;;;;;10.18;4.22;;;308.00;1126.40;;;;;;5096811;28;20035;-70
2021/04/10 09:13:26;;;;;;;5.97;2.80;;;308.10;1152.00;;;;;;5097640;28;20041;-70
2021/04/10 09:16:24;;;;;;;5.55;3.08;;;308.10;1126.40;;;;;;5098377;28;20024;-69
2021/04/10 09:19:04;;;;;;;4.20;2.50;;;332.80;1152.00;;;;;;5097707;28;20031;-69
2021/04/10 09:21:37;;;;;;;5.63;2.78;;;332.80;1126.40;;;;;;5097874;28;20043;-71
2021/04/10 09:24:31;;;;;;;5.85;2.55;;;332.80;1126.40;;;;;;5098336;28;20433;-69
2021/04/10 09:27:17;;;;;;;6.95;3.20;;;333.00;1203.20;;;;;;5095823;28;20016;-69
2021/04/10 09:29:48;;;;;;;8.63;2.70;;;332.90;1100.80;;;;;;5098307;28;20077;-70
2021/04/10 09:32:36;;;;;;;11.77;2.85;;;333.00;1126.40;;;;;;5097461;28;20050;-69
2021/04/10 09:35:05;;;;;;;6.03;2.80;;;333.10;1100.80;;;;;;5097549;28;20031;-70
2021/04/10 09:37:31;;;;;;;4.85;2.58;;;333.20;1126.40;;;;;;5097776;28;20035;-70
2021/04/10 09:40:04;;;;;;;6.05;2.40;;;333.20;1126.40;;;;;;5096708;28;20024;-71
2021/04/10 09:42:37;;;;;;;7.50;3.38;;;333.30;1126.40;;;;;;5096509;28;20024;-70
2021/04/10 09:45:06;;;;;;;4.97;2.60;;;333.30;1075.20;;;;;;5095901;28;20032;-70
2021/04/10 09:48:10;;;;;;;9.40;2.85;;;333.50;1100.80;;;;;;5096977;28;20020;-70
2021/04/10 09:50:39;;;;;;;5.75;2.90;;;333.50;1126.40;;;;;;4995989;28;20058;-69
2021/04/10 09:53:08;;;;;;;4.72;2.38;;;333.70;1075.20;;;;;;4994560;28;20140;-70
2021/04/10 09:55:38;;;;;;;;;;;333.60;1075.20;;;;;;4996161;28;20049;-72
2021/04/10 09:58:08;;;;;;;4.95;2.47;;;333.60;1075.20;;;;;;4994733;28;19910;-70
2021/04/10 10:00:41;;;;;;;7.30;2.28;;;358.40;1075.20;;;;;;4995715;28;20120;-69
2021/04/10 10:03:09;;;;;;;5.43;2.60;;;333.70;1024.00;;;;;;4995757;28;20093;-70
2021/04/10 10:05:39;;;;;;;12.00;6.70;;;333.70;1075.20;;;;;;4995396;28;20496;-70
2021/04/10 10:08:07;;;;;;;10.68;4.03;;;358.70;1100.80;;;;;;5007139;28;20072;-70
2021/04/10 10:10:38;;;;;;;6.75;2.50;;;358.90;1075.20;;;;;;5015952;28;20400;-69
2021/04/10 10:13:06;;;;;;;7.53;2.75;;;358.90;998.40;;;;;;5016498;28;20044;-69
2021/04/10 11:56:27;;;;;;;5.30;2.42;;;563.60;768.00;;;;;;5746593;22;23356;-71
2021/04/10 11:59:10;;;;;;;4.18;2.30;;;537.80;768.00;;;;;;5054136;28;20060;-72
2021/04/10 12:01:49;;;;;;;3.67;2.40;;;538.20;742.40;;;;;;5057312;28;20465;-73
2021/04/10 12:04:23;;;;;;;;;;;537.90;716.80;;;;;;5057027;28;20029;-74
2021/04/10 12:06:49;;;;;;;4.10;2.33;;;538.50;742.40;;;;;;5056337;28;19905;-74
2021/04/10 12:09:16;;;;;;;3.42;2.10;;;538.50;716.80;;;;;;5055965;28;20415;-74
2021/04/10 12:11:43;;;;;;;5.70;2.22;;;589.70;691.20;;;;;;5056451;28;20478;-73
2021/04/10 12:14:11;;;;;;;5.30;3.00;;;665.60;665.60;;;;;;5057050;28;20067;-76
2021/04/10 12:16:43;;;;;;;8.70;2.28;;;691.80;665.60;;;;;;5051490;28;20032;-75
2021/04/10 12:19:13;;;;;;;4.32;2.40;;;640.00;640.00;;;;;;5055566;28;20033;-76
2021/04/10 12:21:39;;;;;;;7.07;6.43;;;691.20;614.40;;;;;;5055596;28;20320;-76
2021/04/10 12:24:05;;;;;;;6.63;6.13;;;793.60;640.00;;;;;;5056416;28;20033;-75
2021/04/10 12:26:33;;;;;;;7.20;6.30;;;768.50;588.80;;;;;;5055974;28;20037;-76
2021/04/10 12:28:59;;;;;;;6.50;5.90;;;768.80;588.80;;;;;;5055519;28;20060;-74
2021/04/10 12:31:25;;;;;;;6.00;4.32;;;768.40;588.80;;;;;;5055265;28;20053;-74
2021/04/10 12:33:50;;;;;;;5.57;4.65;;;742.90;588.80;;;;;;5052774;28;20083;-75
2021/04/10 12:36:17;;;;;;;6.72;6.03;;;717.60;588.80;;;;;;5055849;28;20025;-75
2021/04/10 12:38:45;;;;;;;7.93;7.10;;;820.10;512.00;;;;;;5056596;28;20032;-75
2021/04/10 12:41:11;;;;;;;7.50;6.47;;;896.40;512.00;;;;;;5056824;28;20035;-75
2021/04/10 12:43:37;;;;;;;7.20;6.50;;;921.60;563.20;;;;;;5056771;28;20032;-75
2021/04/10 12:46:03;;;;;;;7.75;7.00;;;947.90;512.00;;;;;;5055308;28;20052;-75
2021/04/10 12:48:29;;;;;;;6.22;3.03;;;1049.90;512.00;;;;;;5055851;28;20678;-75
2021/04/10 12:50:55;;;;;;;6.55;3.30;;;973.40;512.00;;;;;;5057007;28;20108;-74
2021/04/10 12:53:21;;;;;;;5.43;4.40;;;870.50;537.60;;;;;;5056199;28;20053;-75
2021/04/10 12:55:47;;;;;;;7.00;4.88;;;921.80;512.00;;;;;;5056730;28;20040;-74
2021/04/10 12:58:13;;;;;;;5.82;4.22;;;972.90;486.40;;;;;;5051682;28;20713;-75
2021/04/10 13:00:39;;;;;;;6.50;5.15;;;1024.50;460.80;;;;;;5055174;28;20028;-76
2021/04/10 13:03:05;;;;;;;9.05;7.30;;;998.90;486.40;;;;;;5055708;28;20035;-76
2021/04/10 13:05:31;;;;;;;7.40;5.32;;;998.60;512.00;;;;;;5055769;28;20324;-75
2021/04/10 13:07:57;;;;;;;12.32;5.70;;;1075.80;460.80;;;;;;5055896;28;20036;-76
2021/04/10 13:10:22;;;;;;;5.97;4.95;;;1126.50;486.40;;;;;;5047687;28;20497;-76
2021/04/10 13:12:48;;;;;;;10.68;2.90;;;999.20;486.40;;;;;;5046277;28;20351;-75
2021/04/10 13:15:15;;;;;;;5.50;4.32;;;1050.10;460.80;;;;;;5049315;28;20025;-74
2021/04/10 13:17:45;;;;;;;4.38;3.60;;;1024.40;460.80;;;;;;5046962;28;20036;-74
2021/04/10 13:20:13;;;;;;;3.85;2.45;;;1024.10;460.80;;;;;;5044491;28;20041;-75
2021/04/10 13:22:39;;;;;;;3.42;1.80;;;973.40;486.40;;;;;;4964986;28;20082;-76
2021/04/10 13:25:10;;;;;;;5.65;2.58;;;922.40;486.40;;;;;;5044534;28;20033;-74
2021/04/10 13:27:39;;;;;;;6.28;2.50;;;870.70;512.00;;;;;;5042799;28;20115;-74
2021/04/10 13:30:06;;;;;;;6.78;4.25;;;768.70;563.20;;;;;;5046162;28;20491;-73
2021/04/10 13:32:32;;;;;;;8.35;4.90;;;768.00;588.80;;;;;;5051106;28;20033;-72
2021/04/10 13:34:58;;;;;;;5.18;3.78;;;793.70;588.80;;;;;;5046141;28;20080;-73
2021/04/10 13:37:23;;;;;;;5.82;5.28;;;870.90;537.60;;;;;;5047732;28;20021;-72
2021/04/10 13:39:49;;;;;;;4.32;3.92;;;947.70;486.40;;;;;;5046857;28;20100;-73
2021/04/10 13:42:15;;;;;;;6.20;4.50;;;1024.50;460.80;;;;;;5045690;28;20050;-74
2021/04/10 13:44:41;;;;;;;4.00;2.08;;;1050.50;460.80;;;;;;5047343;28;20351;-76
2021/04/10 13:47:07;;;;;;;4.93;1.90;;;1049.90;486.40;;;;;;5046516;28;20459;-75
2021/04/10 13:49:33;;;;;;;5.05;2.35;;;973.60;460.80;;;;;;5046040;28;20036;-75
2021/04/10 13:51:59;;;;;;;4.40;3.15;;;922.00;512.00;;;;;;5047822;28;20037;-76
2021/04/10 13:54:26;;;;;;;5.90;2.53;;;921.60;537.60;;;;;;5046404;28;20025;-73
2021/04/10 13:56:53;;;;;;;5.18;2.90;;;896.20;512.00;;;;;;5050749;28;20049;-73
2021/04/10 13:59:18;;;;;;;5.25;2.53;;;896.20;537.60;;;;;;5048572;28;20025;-71
2021/04/10 14:01:44;;;;;;;5.57;1.90;;;870.50;537.60;;;;;;5053672;28;20320;-72
2021/04/10 14:04:20;;;;;;;3.10;1.90;;;845.10;563.20;;;;;;5057022;28;20415;-72
2021/04/10 14:06:46;;;;;;;5.40;2.10;;;793.80;588.80;;;;;;5057494;28;20124;-72
2021/04/10 14:09:12;;;;;;;5.05;2.70;;;768.30;614.40;;;;;;5056557;28;20112;-72
2021/04/10 14:11:38;;;;;;;5.90;3.92;;;794.40;563.20;;;;;;5057292;28;20029;-72